createdAt,value
2022-12-20T00:01:33.636Z,37.40
2022-12-20T00:04:02.717Z,41.08
2022-12-20T00:06:30.117Z,36.83
2022-12-20T00:09:00.052Z,37.75
2022-12-20T00:11:28.500Z,38.78
2022-12-20T00:13:55.630Z,37.00
2022-12-20T00:16:25.022Z,39.47
2022-12-20T00:18:54.316Z,39.20
2022-12-20T00:21:21.726Z,38.40
2022-12-20T00:23:48.763Z,38.00
2022-12-20T00:26:18.895Z,37.50
2022-12-20T00:28:46.814Z,38.63
2022-12-20T00:31:16.242Z,40.92
2022-12-20T00:33:46.983Z,38.95
2022-12-20T00:36:14.452Z,37.03
2022-12-20T00:38:41.908Z,37.63
2022-12-20T00:41:12.666Z,37.45
2022-12-20T00:43:40.063Z,37.95
2022-12-20T00:46:09.453Z,37.83
2022-12-20T00:48:36.867Z,38.38
2022-12-20T00:51:08.797Z,35.35
2022-12-20T00:53:37.063Z,38.95
2022-12-20T00:56:05.401Z,38.47
2022-12-20T00:58:35.339Z,38.28
2022-12-20T01:01:03.077Z,38.17
2022-12-20T01:03:30.501Z,38.05
2022-12-20T01:06:00.448Z,40.15
2022-12-20T01:08:29.478Z,38.13
2022-12-20T01:11:18.709Z,37.85
2022-12-20T01:13:48.706Z,40.28
2022-12-20T01:16:17.596Z,41.20
2022-12-20T01:18:45.591Z,38.70
2022-12-20T01:21:15.416Z,38.63
2022-12-20T01:23:43.227Z,38.53
2022-12-20T01:26:13.316Z,39.55
2022-12-20T01:28:43.115Z,38.45
2022-12-20T01:31:13.396Z,37.67
2022-12-20T01:33:40.541Z,36.90
2022-12-20T01:36:11.171Z,38.85
2022-12-20T01:38:38.617Z,38.67
2022-12-20T01:41:06.093Z,37.83
2022-12-20T01:43:53.087Z,37.85
2022-12-20T01:46:22.996Z,37.63
2022-12-20T01:48:55.712Z,38.60
2022-12-20T01:51:24.591Z,39.35
2022-12-20T01:53:57.775Z,38.20
2022-12-20T01:56:24.960Z,39.08
2022-12-20T01:58:54.304Z,39.92
2022-12-20T02:01:23.609Z,39.10
2022-12-20T02:03:52.567Z,37.80
2022-12-20T02:06:23.628Z,39.58
2022-12-20T02:08:52.881Z,39.20
2022-12-20T02:11:59.684Z,42.20
2022-12-20T02:14:51.259Z,38.97
2022-12-20T02:17:27.106Z,40.15
2022-12-20T02:20:33.938Z,38.63
2022-12-20T02:23:24.205Z,38.28
2022-12-20T02:26:12.250Z,37.75
2022-12-20T02:28:43.234Z,39.40
2022-12-20T02:31:14.231Z,40.10
2022-12-20T02:33:46.210Z,38.90
2022-12-20T02:36:16.906Z,40.40
2022-12-20T02:38:45.428Z,40.75
2022-12-20T02:41:22.982Z,41.67
2022-12-20T02:44:16.194Z,41.67
2022-12-20T02:46:44.112Z,40.28
2022-12-20T02:49:16.633Z,38.63
2022-12-20T02:51:47.298Z,40.15
2022-12-20T02:54:16.294Z,38.67
2022-12-20T02:56:56.024Z,38.80
2022-12-20T02:59:30.969Z,39.35
2022-12-20T03:01:58.732Z,29.60
2022-12-20T03:04:29.981Z,38.85
2022-12-20T03:07:14.589Z,39.33
2022-12-20T03:09:44.828Z,36.55
2022-12-20T03:12:16.307Z,38.22
2022-12-20T03:14:43.770Z,37.28
2022-12-20T03:17:13.185Z,39.03
2022-12-20T03:19:40.511Z,39.22
2022-12-20T03:22:07.909Z,39.35
2022-12-20T03:24:35.077Z,39.67
2022-12-20T03:27:07.155Z,38.22
2022-12-20T03:29:34.329Z,37.83
2022-12-20T03:32:01.996Z,38.92
2022-12-20T03:34:30.033Z,39.13
2022-12-20T03:36:57.212Z,39.42
2022-12-20T03:39:24.331Z,38.45
2022-12-20T03:41:54.071Z,37.90
2022-12-20T03:44:21.287Z,38.67
2022-12-20T03:46:49.679Z,40.05
2022-12-20T03:49:16.866Z,37.03
2022-12-20T03:51:48.539Z,38.65
2022-12-20T03:54:15.667Z,37.63
2022-12-20T03:57:02.546Z,36.67
2022-12-20T03:59:30.795Z,36.85
2022-12-20T04:01:58.227Z,36.10
2022-12-20T04:04:28.602Z,37.13
2022-12-20T04:06:55.658Z,36.45
2022-12-20T04:09:22.944Z,38.55
2022-12-20T04:11:55.218Z,36.10
2022-12-20T04:14:23.747Z,38.17
2022-12-20T04:16:51.398Z,39.75
2022-12-20T04:19:21.936Z,37.03
2022-12-20T04:21:49.186Z,36.33
2022-12-20T04:24:18.339Z,37.50
2022-12-20T04:26:54.962Z,36.00
2022-12-20T04:29:22.193Z,34.58
2022-12-20T04:31:50.233Z,34.83
2022-12-20T04:34:18.174Z,36.13
2022-12-20T04:36:45.497Z,39.22
2022-12-20T04:39:19.623Z,36.97
2022-12-20T04:42:06.570Z,35.63
2022-12-20T04:44:33.654Z,35.97
2022-12-20T04:47:00.782Z,37.42
2022-12-20T04:49:29.015Z,38.30
2022-12-20T04:52:15.999Z,35.05
2022-12-20T04:54:43.038Z,37.15
2022-12-20T04:57:16.673Z,27.85
2022-12-20T04:59:44.262Z,34.58
2022-12-20T05:02:13.678Z,36.97
2022-12-20T05:04:48.569Z,36.35
2022-12-20T05:07:16.743Z,34.65
2022-12-20T05:09:49.669Z,34.67
2022-12-20T05:12:16.765Z,34.72
2022-12-20T05:14:45.084Z,35.88
2022-12-20T05:17:13.851Z,35.42
2022-12-20T05:19:40.907Z,36.38
2022-12-20T05:22:29.250Z,36.28
2022-12-20T05:25:26.487Z,35.70
2022-12-20T05:27:55.726Z,34.88
2022-12-20T05:30:26.416Z,35.42
2022-12-20T05:32:53.936Z,34.85
2022-12-20T05:35:21.541Z,34.75
2022-12-20T05:37:54.116Z,35.00
2022-12-20T05:40:22.469Z,36.05
2022-12-20T05:42:50.132Z,36.30
2022-12-20T05:45:18.275Z,37.17
2022-12-20T05:47:52.560Z,36.38
2022-12-20T05:50:19.781Z,34.90
2022-12-20T05:53:11.561Z,34.10
2022-12-20T05:55:45.929Z,34.60
2022-12-20T05:58:13.737Z,34.63
2022-12-20T06:00:50.667Z,36.45
2022-12-20T06:03:19.030Z,34.90
2022-12-20T06:05:46.681Z,32.53
2022-12-20T06:08:21.470Z,34.77
2022-12-20T06:10:49.974Z,33.50
2022-12-20T06:13:18.498Z,33.63
2022-12-20T06:15:46.814Z,33.08
2022-12-20T06:18:13.970Z,33.55
2022-12-20T06:20:41.167Z,34.70
2022-12-20T06:23:10.775Z,33.35
2022-12-20T06:25:44.939Z,33.63
2022-12-20T06:28:12.212Z,34.63
2022-12-20T06:30:39.407Z,33.22
2022-12-20T06:33:08.298Z,35.00
2022-12-20T06:35:35.374Z,34.33
2022-12-20T06:38:02.902Z,34.22
2022-12-20T06:40:35.483Z,34.38
2022-12-20T06:43:03.875Z,35.05
2022-12-20T06:45:33.585Z,33.70
2022-12-20T06:48:05.314Z,35.03
2022-12-20T06:50:34.623Z,33.45
2022-12-20T06:53:01.686Z,35.38
2022-12-20T06:55:28.843Z,34.03
2022-12-20T06:57:56.505Z,35.08
2022-12-20T07:00:24.209Z,34.15
2022-12-20T07:02:51.554Z,35.05
2022-12-20T07:05:18.762Z,35.00
2022-12-20T07:07:45.913Z,35.45
2022-12-20T07:10:13.551Z,36.40
2022-12-20T07:12:47.179Z,35.90
2022-12-20T07:17:42.544Z,34.35
2022-12-20T07:20:13.594Z,33.53
2022-12-20T07:22:42.092Z,34.88
2022-12-20T07:25:10.516Z,35.95
2022-12-20T07:27:37.683Z,32.80
2022-12-20T07:30:05.349Z,33.25
2022-12-20T07:32:32.774Z,35.25
2022-12-20T07:35:00.073Z,35.72
2022-12-20T07:37:29.490Z,33.97
2022-12-20T07:39:56.631Z,34.88
2022-12-20T07:42:26.377Z,34.25
2022-12-20T07:44:59.761Z,35.67
2022-12-20T07:47:27.036Z,36.70
2022-12-20T07:49:55.493Z,35.28
2022-12-20T07:52:27.432Z,35.35
2022-12-20T07:55:00.089Z,36.83
2022-12-20T07:57:33.638Z,36.13
2022-12-20T08:00:03.387Z,25.50
2022-12-20T08:02:45.931Z,36.20
2022-12-20T08:07:43.045Z,34.90
2022-12-20T08:10:13.064Z,35.40
2022-12-20T08:12:41.635Z,36.88
2022-12-20T08:15:09.739Z,36.88
2022-12-20T08:17:37.060Z,36.53
2022-12-20T08:20:05.911Z,36.30
2022-12-20T08:22:33.457Z,37.30
2022-12-20T08:25:00.980Z,37.90
2022-12-20T08:27:28.154Z,36.90
2022-12-20T08:29:55.352Z,35.38
2022-12-20T08:32:22.510Z,35.47
2022-12-20T08:34:49.588Z,36.42
2022-12-20T08:37:17.785Z,35.90
2022-12-20T08:39:44.910Z,35.97
2022-12-20T08:42:12.532Z,37.22
2022-12-20T08:44:39.712Z,36.03
2022-12-20T08:47:06.742Z,35.05
2022-12-20T08:49:33.869Z,37.10
2022-12-20T08:52:01.019Z,36.47
2022-12-20T08:54:28.301Z,35.83
2022-12-20T08:56:55.643Z,37.15
2022-12-20T08:59:22.634Z,35.67
2022-12-20T09:01:50.705Z,35.50
2022-12-20T09:04:17.782Z,37.10
2022-12-20T09:06:44.949Z,33.78
2022-12-20T09:09:11.959Z,34.75
2022-12-20T09:11:39.166Z,33.88
2022-12-20T09:14:06.177Z,35.08
2022-12-20T09:16:33.621Z,36.13
2022-12-20T09:19:05.457Z,37.08
2022-12-20T09:21:34.645Z,34.67
2022-12-20T09:24:02.095Z,36.83
2022-12-20T09:26:29.246Z,37.38
2022-12-20T09:28:56.510Z,35.30
2022-12-20T09:31:26.264Z,38.30
2022-12-20T09:33:56.401Z,36.60
2022-12-20T09:36:24.882Z,35.40
2022-12-20T09:38:52.418Z,37.78
2022-12-20T09:41:40.813Z,37.70
2022-12-20T09:44:16.118Z,35.40
2022-12-20T09:46:44.793Z,35.92
2022-12-20T09:49:17.156Z,37.75
2022-12-20T09:52:03.379Z,35.38
2022-12-20T09:54:44.928Z,35.60
2022-12-20T09:57:29.526Z,39.05
2022-12-20T09:59:58.130Z,38.65
2022-12-20T10:02:55.555Z,36.05
2022-12-20T10:05:15.313Z,35.33
2022-12-20T10:08:01.523Z,36.78
2022-12-20T10:10:54.349Z,36.67
2022-12-20T10:13:48.939Z,34.72
2022-12-20T10:16:27.553Z,26.25
2022-12-20T10:19:01.405Z,38.25
2022-12-20T10:21:32.849Z,30.83
2022-12-20T10:24:03.728Z,37.67
2022-12-20T10:26:33.879Z,36.20
2022-12-20T10:29:01.343Z,36.22
2022-12-20T10:31:28.515Z,38.67
2022-12-20T10:33:56.073Z,37.28
2022-12-20T10:36:27.539Z,37.25
2022-12-20T10:38:58.819Z,37.72
2022-12-20T10:41:30.347Z,35.60
2022-12-20T10:44:05.512Z,36.00
2022-12-20T10:46:40.299Z,37.88
2022-12-20T10:49:34.542Z,36.53
2022-12-20T10:52:12.272Z,36.75
2022-12-20T10:54:40.989Z,37.00
2022-12-20T10:57:27.773Z,37.50
2022-12-20T11:00:01.800Z,34.65
2022-12-20T11:02:40.153Z,36.33
2022-12-20T11:05:11.074Z,34.83
2022-12-20T11:08:40.798Z,34.38
2022-12-20T11:10:41.425Z,34.97
2022-12-20T11:13:21.102Z,36.40
2022-12-20T11:15:54.829Z,37.13
2022-12-20T11:18:30.540Z,27.10
2022-12-20T11:21:27.405Z,38.33
2022-12-20T11:23:56.297Z,37.75
2022-12-20T11:26:23.288Z,37.15
2022-12-20T11:29:04.648Z,36.17
2022-12-20T11:31:32.874Z,36.78
2022-12-20T11:34:00.117Z,35.97
2022-12-20T11:36:27.419Z,35.45
2022-12-20T11:39:03.632Z,37.25
2022-12-20T11:41:56.751Z,37.30
2022-12-20T11:44:53.299Z,37.75
2022-12-20T11:47:28.752Z,36.92
2022-12-20T11:50:17.002Z,38.13
2022-12-20T11:52:48.227Z,37.78
2022-12-20T11:55:21.468Z,37.47
2022-12-20T11:58:20.365Z,34.75
2022-12-20T12:00:53.525Z,35.83
2022-12-20T12:03:25.759Z,34.40
2022-12-20T12:05:58.728Z,33.65
2022-12-20T12:08:34.465Z,34.78
2022-12-20T12:11:25.482Z,31.80
2022-12-20T12:14:00.576Z,33.20
2022-12-20T12:16:35.265Z,31.60
2022-12-20T12:19:03.309Z,32.78
2022-12-20T12:21:44.523Z,31.73
2022-12-20T12:24:30.495Z,29.45
2022-12-20T12:26:59.944Z,32.00
2022-12-20T12:29:29.817Z,29.98
2022-12-20T12:32:16.129Z,31.48
2022-12-20T12:35:23.144Z,31.92
2022-12-20T12:38:26.210Z,31.88
2022-12-20T12:41:25.696Z,32.72
2022-12-20T12:44:02.989Z,35.10
2022-12-20T12:46:36.450Z,33.15
2022-12-20T12:49:13.864Z,34.13
2022-12-20T12:51:50.431Z,33.65
2022-12-20T12:54:22.225Z,34.17
2022-12-20T12:56:52.719Z,31.80
2022-12-20T12:59:21.969Z,33.13
2022-12-20T13:01:52.190Z,32.42
2022-12-20T13:04:19.812Z,33.92
2022-12-20T13:06:47.993Z,34.20
2022-12-20T13:09:22.482Z,32.40
2022-12-20T13:14:28.448Z,30.33
2022-12-20T13:17:25.851Z,30.92
2022-12-20T13:19:55.482Z,31.17
2022-12-20T13:22:23.911Z,31.65
2022-12-20T13:24:57.206Z,32.22
2022-12-20T13:27:26.210Z,32.22
2022-12-20T13:30:13.932Z,30.77
2022-12-20T13:32:48.635Z,29.90
2022-12-20T13:38:39.645Z,28.52
2022-12-20T13:41:34.523Z,28.98
2022-12-20T13:44:10.783Z,27.73
2022-12-20T13:47:01.793Z,30.33
2022-12-20T13:49:36.541Z,28.55
2022-12-20T13:52:13.034Z,31.17
2022-12-20T13:54:44.229Z,30.05
2022-12-20T13:57:17.402Z,27.50
2022-12-20T14:00:01.800Z,26.77
2022-12-20T14:02:40.023Z,30.13
2022-12-20T14:05:15.801Z,27.88
2022-12-20T14:07:44.028Z,27.38
2022-12-20T14:10:22.688Z,28.17
2022-12-20T14:12:52.611Z,27.90
2022-12-20T14:15:23.183Z,28.90
2022-12-20T14:17:50.309Z,28.77
2022-12-20T14:20:22.494Z,28.17
2022-12-20T14:23:11.577Z,30.05
2022-12-20T14:25:56.864Z,31.58
2022-12-20T14:28:27.628Z,31.42
2022-12-20T14:30:55.971Z,30.80
2022-12-20T14:33:43.045Z,29.85
2022-12-20T14:36:19.396Z,32.85
2022-12-20T14:38:49.281Z,32.95
2022-12-20T14:41:34.030Z,31.25
2022-12-20T14:44:16.412Z,33.33
2022-12-20T14:46:54.118Z,31.73
2022-12-20T14:49:23.522Z,30.00
2022-12-20T14:51:52.402Z,31.08
2022-12-20T14:55:05.178Z,33.50
2022-12-20T14:57:20.193Z,29.83
2022-12-20T15:00:18.061Z,32.35
2022-12-20T15:02:53.563Z,30.73
2022-12-20T15:05:38.553Z,32.70
2022-12-20T15:11:00.425Z,30.90
2022-12-20T15:13:34.051Z,32.08
2022-12-20T15:16:04.756Z,31.40
2022-12-20T15:18:32.351Z,31.23
2022-12-20T15:21:14.479Z,29.38
2022-12-20T15:23:51.742Z,30.92
2022-12-20T15:26:22.348Z,30.98
2022-12-20T15:28:49.679Z,30.10
2022-12-20T15:31:18.536Z,28.92
2022-12-20T15:33:46.698Z,30.35
2022-12-20T15:36:18.892Z,29.80
2022-12-20T15:39:11.182Z,28.92
2022-12-20T15:41:34.880Z,30.63
2022-12-20T15:44:06.950Z,28.73
2022-12-20T15:46:34.268Z,28.27
2022-12-20T15:49:01.493Z,29.58
2022-12-20T15:51:34.896Z,28.23
2022-12-20T15:54:05.103Z,29.27
2022-12-20T15:56:32.294Z,28.92
2022-12-20T15:58:59.420Z,28.50
2022-12-20T16:01:40.419Z,29.95
2022-12-20T16:04:12.887Z,30.20
2022-12-20T16:06:40.059Z,29.52
2022-12-20T16:09:07.214Z,27.67
2022-12-20T16:11:34.630Z,28.52
2022-12-20T16:14:01.715Z,28.60
2022-12-20T16:16:31.555Z,28.55
2022-12-20T16:18:58.779Z,29.38
2022-12-20T16:21:28.230Z,28.38
2022-12-20T16:23:55.508Z,28.73
2022-12-20T16:26:25.512Z,29.27
2022-12-20T16:28:54.095Z,29.00
2022-12-20T16:31:24.641Z,30.80
2022-12-20T16:33:52.821Z,30.83
2022-12-20T16:36:19.992Z,31.83
2022-12-20T16:38:47.236Z,29.15
2022-12-20T16:41:17.095Z,29.08
2022-12-20T16:43:44.918Z,31.38
2022-12-20T16:46:14.209Z,29.45
2022-12-20T16:48:41.862Z,30.65
2022-12-20T16:51:27.502Z,32.17
2022-12-20T16:56:44.812Z,33.72
2022-12-20T16:59:22.096Z,30.70
2022-12-20T17:01:53.546Z,29.95
2022-12-20T17:04:23.906Z,30.48
2022-12-20T17:06:51.143Z,29.00
2022-12-20T17:09:19.387Z,30.85
2022-12-20T17:11:47.943Z,30.13
2022-12-20T17:14:15.009Z,31.85
2022-12-20T17:16:42.134Z,30.38
2022-12-20T17:19:10.991Z,29.48
2022-12-20T17:24:27.182Z,29.83
2022-12-20T17:26:55.336Z,30.55
2022-12-20T17:29:22.684Z,30.95
2022-12-20T17:31:50.046Z,31.73
2022-12-20T17:34:22.148Z,28.75
2022-12-20T17:36:51.823Z,28.10
2022-12-20T17:39:19.255Z,27.80
2022-12-20T17:41:49.474Z,28.33
2022-12-20T17:44:20.603Z,28.92
2022-12-20T17:46:48.168Z,27.17
2022-12-20T17:49:16.138Z,29.38
2022-12-20T17:51:43.545Z,27.65
2022-12-20T17:54:20.612Z,28.30
2022-12-20T17:56:48.084Z,29.67
2022-12-20T17:59:15.582Z,29.80
2022-12-20T18:01:44.000Z,34.75
2022-12-20T18:04:13.887Z,29.50
2022-12-20T18:06:42.652Z,34.90
2022-12-20T18:09:15.753Z,28.13
2022-12-20T18:11:44.797Z,20.73
2022-12-20T18:14:12.621Z,27.80
2022-12-20T18:16:40.546Z,27.15
2022-12-20T18:19:14.454Z,28.27
2022-12-20T18:21:41.877Z,28.70
2022-12-20T18:24:12.368Z,29.10
2022-12-20T18:26:39.719Z,26.88
2022-12-20T18:29:06.874Z,29.15
2022-12-20T18:31:35.430Z,28.15
2022-12-20T18:34:03.258Z,27.75
2022-12-20T18:36:34.844Z,27.70
2022-12-20T18:39:04.444Z,27.85
2022-12-20T18:41:31.982Z,31.00
2022-12-20T18:44:01.962Z,30.38
2022-12-20T18:46:29.859Z,29.13
2022-12-20T18:48:59.220Z,29.55
2022-12-20T18:51:29.193Z,29.38
2022-12-20T18:53:58.307Z,29.95
2022-12-20T18:56:30.029Z,28.33
2022-12-20T18:59:04.483Z,28.98
2022-12-20T19:01:38.617Z,27.00
2022-12-20T19:04:07.354Z,27.98
2022-12-20T19:06:36.141Z,29.58
2022-12-20T19:09:05.989Z,27.33
2022-12-20T19:11:33.755Z,28.38
2022-12-20T19:14:01.390Z,28.20
2022-12-20T19:16:32.035Z,29.00
2022-12-20T19:19:01.892Z,28.42
2022-12-20T19:21:31.232Z,25.73
2022-12-20T19:24:00.892Z,28.15
2022-12-20T19:26:29.946Z,28.00
2022-12-20T19:28:57.547Z,27.48
2022-12-20T19:31:27.564Z,28.77
2022-12-20T19:33:58.432Z,29.95
2022-12-20T19:36:29.449Z,28.98
2022-12-20T19:38:59.606Z,28.00
2022-12-20T19:41:29.698Z,27.25
2022-12-20T19:43:57.242Z,27.67
2022-12-20T19:46:29.408Z,26.38
2022-12-20T19:48:58.881Z,26.38
2022-12-20T19:51:27.793Z,28.73
2022-12-20T19:53:56.048Z,27.13
2022-12-20T19:56:27.152Z,27.08
2022-12-20T19:58:55.435Z,30.23
2022-12-20T20:01:25.916Z,27.80
2022-12-20T20:03:56.568Z,27.55
2022-12-20T20:06:25.155Z,27.55
2022-12-20T20:08:52.726Z,26.73
2022-12-20T20:11:21.252Z,27.98
2022-12-20T20:13:48.910Z,29.00
2022-12-20T20:16:21.923Z,27.05
2022-12-20T20:18:50.240Z,21.73
2022-12-20T20:21:22.072Z,27.08
2022-12-20T20:23:51.544Z,27.05
2022-12-20T20:26:22.205Z,26.95
2022-12-20T20:28:50.107Z,28.80
2022-12-20T20:31:20.385Z,27.45
2022-12-20T20:33:48.758Z,28.35
2022-12-20T20:36:19.376Z,28.67
2022-12-20T20:38:48.427Z,30.10
2022-12-20T20:41:16.635Z,29.02
2022-12-20T20:43:44.260Z,28.27
2022-12-20T20:46:14.631Z,28.58
2022-12-20T20:48:43.014Z,27.50
2022-12-20T20:51:11.258Z,26.92
2022-12-20T20:53:39.418Z,27.23
2022-12-20T20:56:08.152Z,25.92
2022-12-20T20:58:36.313Z,25.73
2022-12-20T21:01:08.545Z,27.60
2022-12-20T21:03:36.277Z,25.75
2022-12-20T21:08:54.505Z,24.33
2022-12-20T21:11:22.073Z,25.55
2022-12-20T21:13:49.481Z,24.30
2022-12-20T21:16:20.941Z,24.75
2022-12-20T21:18:57.499Z,22.00
2022-12-20T21:21:26.356Z,22.35
2022-12-20T21:23:54.415Z,23.90
2022-12-20T21:26:23.025Z,22.65
2022-12-20T21:28:50.258Z,22.30
2022-12-20T21:31:19.587Z,25.15
2022-12-20T21:33:47.085Z,23.83
2022-12-20T21:36:18.454Z,23.27
2022-12-20T21:38:50.435Z,23.27
2022-12-20T21:41:18.500Z,26.50
2022-12-20T21:43:45.571Z,24.02
2022-12-20T21:46:13.097Z,26.02
2022-12-20T21:48:42.369Z,23.25
2022-12-20T21:51:12.980Z,23.27
2022-12-20T21:53:42.889Z,24.52
2022-12-20T21:56:10.170Z,23.13
2022-12-20T21:58:37.271Z,24.02
2022-12-20T22:01:06.102Z,23.58
2022-12-20T22:03:33.535Z,24.10
2022-12-20T22:06:00.800Z,24.33
2022-12-20T22:08:29.021Z,24.13
2022-12-20T22:11:01.027Z,23.27
2022-12-20T22:13:29.499Z,24.25
2022-12-20T22:15:56.788Z,24.30
2022-12-20T22:18:25.040Z,23.45
2022-12-20T22:20:52.185Z,23.40
2022-12-20T22:23:19.249Z,24.63
2022-12-20T22:25:46.300Z,23.13
2022-12-20T22:28:13.387Z,24.65
2022-12-20T22:30:42.155Z,22.38
2022-12-20T22:33:09.913Z,23.20
2022-12-20T22:35:37.708Z,23.27
2022-12-20T22:38:05.894Z,24.20
2022-12-20T22:40:33.010Z,23.15
2022-12-20T22:43:00.190Z,23.60
2022-12-20T22:45:27.342Z,23.63
2022-12-20T22:47:54.480Z,23.13
2022-12-20T22:50:21.604Z,24.25
2022-12-20T22:52:48.613Z,24.90
2022-12-20T22:55:15.851Z,22.80
2022-12-20T22:57:43.068Z,23.98
2022-12-20T23:00:13.282Z,23.20
2022-12-20T23:02:41.317Z,23.45
2022-12-20T23:05:09.295Z,23.15
2022-12-20T23:07:36.547Z,23.95
2022-12-20T23:10:03.972Z,23.02
2022-12-20T23:12:50.937Z,24.08
2022-12-20T23:15:37.995Z,21.45
2022-12-20T23:18:05.232Z,22.42
2022-12-20T23:20:52.244Z,21.90
2022-12-20T23:23:19.476Z,22.40
2022-12-20T23:25:46.522Z,21.40
2022-12-20T23:28:13.618Z,22.80
2022-12-20T23:30:40.707Z,22.85
2022-12-20T23:33:07.770Z,21.60
2022-12-20T23:35:34.944Z,23.15
2022-12-20T23:38:02.308Z,21.98
2022-12-20T23:40:29.395Z,23.98
2022-12-20T23:42:56.511Z,23.45
2022-12-20T23:45:23.665Z,24.48
2022-12-20T23:47:50.799Z,22.50
2022-12-20T23:50:18.461Z,24.52
2022-12-20T23:52:45.661Z,24.35
2022-12-20T23:55:12.684Z,22.92
2022-12-20T23:57:39.998Z,23.02
